• Join FlightAware (Why Join?)
  • Login
  • US Flag 
02:58PM EDT


 

Airport Tracker/Info


-or-


 

Live Flight TrackerFlight Track Log ✈ N365SC ✈ 09-May-2013 ✈ KBFI - KGPI

Flight Track Log - Related Links

Times and Time Zones

All times are in EDT time to prevent confusion due to time zone crossing. See the N365SC flight status page for this flight to view local times or setup timezone preferences in your user account.

Time Position Orientation Groundspeed Altitude Reporting Facility
EDT Latitude Longitude Course Direction KTS MPH feet Rate Location/Type
06:39PM 47.5547 -122.3264 317° Northwest 188 216 1,200  Level Seattle Center
06:41PM 47.6161 -122.4108 317° Northwest 221 254 4,300 2,160 Climbing Seattle Center
06:42PM 47.6564 -122.4581 322° Northwest 219 252 6,600 2,280 Climbing Seattle Center
06:43PM 47.7236 -122.4678 354° North 227 261 8,800 1,140 Climbing Seattle Center
06:44PM 47.7703 -122.3875 49° Northeast 283 326 9,000 1,080 Climbing Seattle Center
06:45PM 47.7433 -122.2703 109° East 301 346 11,000 2,400 Climbing Seattle Center
06:46PM 47.6908 -122.1503 123° Southeast 345 397 14,000 3,000 Climbing Seattle Center
06:47PM 47.6203 -122.0464 135° Southeast 355 409 17,200 2,400 Climbing Seattle Center
06:48PM 47.5922 -121.8936 105° East 379 436 19,000 1,800 Climbing Seattle Center
06:49PM 47.5764 -121.7239 98° East 405 466 20,900 2,040 Climbing Seattle Center
06:50PM 47.5606 -121.5567 98° East 413 475 23,200 2,220 Climbing Seattle Center
06:51PM 47.5558 -121.3831 92° East 424 488 25,500 2,220 Climbing Seattle Center
06:52PM 47.5553 -121.2103 90° East 426 490 27,800 2,100 Climbing Seattle Center
06:53PM 47.5511 -121.0372 92° East 427 491 29,800 1,620 Climbing Seattle Center
06:54PM 47.5467 -120.8356 92° East 445 512 31,200 1,320 Climbing Seattle Center
06:55PM 47.5428 -120.6467 92° East 460 529 32,500 1,260 Climbing Seattle Center
06:56PM 47.5394 -120.4556 91° East 464 534 33,800 1,140 Climbing Seattle Center
06:57PM 47.5667 -120.2700 78° East 461 531 34,900 540 Climbing Seattle Center
06:58PM 47.5925 -120.0783 79° East 471 542 35,000  Climbing Seattle Center
06:59PM 47.6194 -119.8847 78° East 481 554 35,000  Level Seattle Center
07:00PM 47.6442 -119.6944 79° East 472 543 35,000  Level Seattle Center
07:01PM 47.6703 -119.5044 78° East 471 542 35,000  Level Seattle Center
07:02PM 47.6994 -119.2742 79° East 472 543 35,000  Level Seattle Center
07:03PM 47.7236 -119.0853 79° East 469 540 35,000  Level Seattle Center
07:04PM 47.7481 -118.8942 79° East 470 541 35,000  Level Seattle Center
07:05PM 47.7722 -118.7044 79° East 469 540 35,000  Level Seattle Center
07:06PM 47.7956 -118.5150 80° East 466 536 35,000  Level Seattle Center
07:07PM 47.8186 -118.3239 80° East 470 541 35,000  Level Seattle Center
07:08PM 47.8411 -118.1333 80° East 468 539 35,000  Level Seattle Center
07:09PM 47.8650 -117.9417 79° East 471 542 35,000  Level Seattle Center
07:10PM 47.8872 -117.7492 80° East 471 542 35,000  Level Seattle Center
07:11PM 47.9114 -117.5558 79° East 474 545 35,000  Level Seattle Center
07:12PM 47.9325 -117.3633 81° East 471 542 35,000  Level Seattle Center
07:13PM 47.9550 -117.1694 80° East 471 542 35,000  Level Seattle Center
07:14PM 47.9756 -116.9761 81° East 469 540 35,000  Level Seattle Center
07:15PM 47.9958 -116.7839 81° East 467 537 35,000 -780 Level Seattle Center
07:16PM 48.0161 -116.5911 81° East 468 539 33,500 -2,040 Descending Seattle Center
07:17PM 48.0364 -116.3953 81° East 474 545 30,900 -2,460 Descending Seattle Center
07:18PM 48.0567 -116.2047 81° East 469 540 28,500 -2,700 Descending Seattle Center
07:19PM 48.0808 -115.9669 81° East 480 552 25,500 -2,760 Descending Seattle Center
07:20PM 48.0997 -115.7758 82° East 470 541 23,000 -2,280 Descending Seattle Center
07:21PM 48.1150 -115.6161 82° East 458 527 20,900 -2,220 Descending Seattle Center
07:22PM 48.1325 -115.4342 82° East 446 513 18,600 -2,460 Descending Seattle Center
07:24PM 48.1514 -115.2261 82° East 426 490 15,900 -2,400 Descending Seattle Center
07:25PM 48.1678 -115.0608 81° East 409 471 13,800 -2,160 Descending Seattle Center
07:25PM 48.1767 -114.9644 82° East 399 459 12,500 -2,100 Descending Salt Lake Center
07:26PM 48.1908 -114.8075 82° East 386 444 10,500 -1,800 Descending Salt Lake Center
07:27PM 48.1961 -114.7464 83° East 381 438 9,900 -1,080 Descending Seattle Center
07:28PM 48.2067 -114.6206 83° East 330 380 9,000 -660 Descending Seattle Center
07:28PM 48.2128 -114.5522 82° East 304 350 8,900 -180 Descending Salt Lake Center